SWA1219 KLAS-KSEA
Flight info
| Callsign | SWA1219 |
|---|---|
| Flight time | 2h 8m |
| Altitude | 38000 |
| Route | JOHKR5 KENNO OAL LOMIA LKV HAWKZ8 |
| Aircraft | B737/M-SDE2E3FGHIRWXY/LB1 |
Departure
| Time | 2026-05-05 00:56 |
|---|---|
| Airport | Harry Reid International Airport (KLAS) |
Arrival
| Time | 2026-05-05 03:05 |
|---|---|
| Airport | Seattle–Tacoma International Airport (KSEA) |
| Time | Latitude | Longitude | Altitude | Speed | Heading |
|---|---|---|---|---|---|
| 2026-05-05 00:32 | 36.08088 | -115.14598 | 2118 ft | 0 kts | 253° |
| 2026-05-05 00:47 | 36.08091 | -115.14583 | 2117 ft | 4 kts | 254° |
| 2026-05-05 00:47 | 36.08099 | -115.14551 | 2115 ft | 4 kts | 250° |
| 2026-05-05 00:47 | 36.08112 | -115.14524 | 2116 ft | 4 kts | 208° |
| 2026-05-05 00:47 | 36.08131 | -115.14522 | 2115 ft | 2 kts | 156° |
| 2026-05-05 00:48 | 36.08135 | -115.14524 | 2114 ft | 2 kts | 156° |
| 2026-05-05 00:50 | 36.08133 | -115.14523 | 2114 ft | 2 kts | 156° |
| 2026-05-05 00:51 | 36.08094 | -115.14502 | 2114 ft | 9 kts | 156° |
| 2026-05-05 00:51 | 36.08030 | -115.14485 | 2113 ft | 10 kts | 181° |
| 2026-05-05 00:51 | 36.07959 | -115.14487 | 2115 ft | 10 kts | 181° |
| 2026-05-05 00:51 | 36.07890 | -115.14488 | 2117 ft | 10 kts | 179° |
| 2026-05-05 00:52 | 36.07837 | -115.14447 | 2118 ft | 11 kts | 107° |
| 2026-05-05 00:52 | 36.07832 | -115.14331 | 2113 ft | 17 kts | 92° |
| 2026-05-05 00:52 | 36.07828 | -115.14149 | 2104 ft | 24 kts | 90° |
| 2026-05-05 00:52 | 36.07829 | -115.13938 | 2102 ft | 25 kts | 90° |
| 2026-05-05 00:53 | 36.07828 | -115.13725 | 2092 ft | 25 kts | 89° |
| 2026-05-05 00:53 | 36.07828 | -115.13517 | 2086 ft | 23 kts | 90° |
| 2026-05-05 00:53 | 36.07829 | -115.13326 | 2078 ft | 22 kts | 90° |
| 2026-05-05 00:53 | 36.07830 | -115.13120 | 2065 ft | 25 kts | 90° |
| 2026-05-05 00:54 | 36.07827 | -115.12913 | 2056 ft | 24 kts | 88° |
| 2026-05-05 00:54 | 36.07829 | -115.12701 | 2043 ft | 25 kts | 90° |
| 2026-05-05 00:54 | 36.07828 | -115.12486 | 2041 ft | 24 kts | 90° |
| 2026-05-05 00:54 | 36.07825 | -115.12287 | 2031 ft | 19 kts | 100° |
| 2026-05-05 00:55 | 36.07751 | -115.12153 | 2029 ft | 19 kts | 133° |
| 2026-05-05 00:55 | 36.07654 | -115.12130 | 2033 ft | 10 kts | 202° |
| 2026-05-05 00:55 | 36.07642 | -115.12229 | 2034 ft | 31 kts | 271° |
| 2026-05-05 00:55 | 36.07640 | -115.12800 | 2051 ft | 99 kts | 270° |
| 2026-05-05 00:56 | 36.07646 | -115.13865 | 2104 ft | 150 kts | 267° |
| 2026-05-05 00:56 | 36.07698 | -115.15239 | 2563 ft | 166 kts | 267° |
| 2026-05-05 00:56 | 36.07727 | -115.16689 | 3364 ft | 170 kts | 266° |
| 2026-05-05 00:56 | 36.07739 | -115.18189 | 3979 ft | 183 kts | 265° |
| 2026-05-05 00:57 | 36.07724 | -115.19872 | 4242 ft | 208 kts | 261° |
| 2026-05-05 00:57 | 36.07506 | -115.21707 | 4713 ft | 220 kts | 258° |
| 2026-05-05 00:57 | 36.07229 | -115.23582 | 5507 ft | 224 kts | 253° |
| 2026-05-05 00:57 | 36.06527 | -115.25287 | 6297 ft | 228 kts | 231° |
| 2026-05-05 00:58 | 36.05315 | -115.26581 | 6958 ft | 243 kts | 210° |
| 2026-05-05 00:58 | 36.03728 | -115.27429 | 7636 ft | 249 kts | 203° |
| 2026-05-05 00:58 | 36.02084 | -115.28161 | 7947 ft | 253 kts | 202° |
| 2026-05-05 00:58 | 36.00410 | -115.28900 | 8011 ft | 255 kts | 202° |
| 2026-05-05 00:59 | 35.98760 | -115.29674 | 8053 ft | 252 kts | 206° |
| 2026-05-05 00:59 | 35.97181 | -115.30674 | 8401 ft | 261 kts | 209° |
| 2026-05-05 00:59 | 35.95570 | -115.31756 | 9340 ft | 265 kts | 209° |
| 2026-05-05 00:59 | 35.93974 | -115.32818 | 10499 ft | 261 kts | 209° |
| 2026-05-05 01:00 | 35.92339 | -115.33897 | 10869 ft | 265 kts | 208° |
| 2026-05-05 01:00 | 35.90720 | -115.34975 | 11018 ft | 268 kts | 213° |
| 2026-05-05 01:00 | 35.89386 | -115.36607 | 11040 ft | 277 kts | 235° |
| 2026-05-05 01:00 | 35.88618 | -115.38814 | 11023 ft | 282 kts | 255° |
| 2026-05-05 01:01 | 35.88488 | -115.41225 | 11030 ft | 283 kts | 266° |
| 2026-05-05 01:01 | 35.88552 | -115.43650 | 11034 ft | 283 kts | 268° |
| 2026-05-05 01:01 | 35.88634 | -115.46084 | 11023 ft | 285 kts | 268° |
| 2026-05-05 01:01 | 35.88705 | -115.48531 | 11029 ft | 285 kts | 268° |
| 2026-05-05 01:02 | 35.88784 | -115.50967 | 11047 ft | 285 kts | 268° |
| 2026-05-05 01:02 | 35.88834 | -115.53388 | 11035 ft | 285 kts | 267° |
| 2026-05-05 01:02 | 35.88874 | -115.55821 | 11018 ft | 282 kts | 267° |
| 2026-05-05 01:02 | 35.88914 | -115.58249 | 11153 ft | 288 kts | 268° |
| 2026-05-05 01:03 | 35.88957 | -115.60850 | 11400 ft | 316 kts | 268° |
| 2026-05-05 01:03 | 35.89004 | -115.63667 | 11724 ft | 339 kts | 268° |
| 2026-05-05 01:03 | 35.89078 | -115.66611 | 12438 ft | 347 kts | 269° |
| 2026-05-05 01:03 | 35.89133 | -115.69610 | 13250 ft | 352 kts | 268° |
| 2026-05-05 01:04 | 35.89182 | -115.72656 | 14029 ft | 358 kts | 268° |
| 2026-05-05 01:04 | 35.89287 | -115.78830 | 15834 ft | 361 kts | 268° |
| 2026-05-05 01:04 | 35.89341 | -115.81942 | 16625 ft | 366 kts | 268° |
| 2026-05-05 01:05 | 35.89395 | -115.85104 | 17417 ft | 370 kts | 267° |
| 2026-05-05 01:05 | 35.89448 | -115.88248 | 18201 ft | 374 kts | 267° |
| 2026-05-05 01:05 | 35.89635 | -115.91470 | 18878 ft | 382 kts | 278° |
| 2026-05-05 01:05 | 35.90553 | -115.94579 | 19644 ft | 392 kts | 292° |
| 2026-05-05 01:06 | 35.92192 | -115.97323 | 20399 ft | 404 kts | 307° |
| 2026-05-05 01:06 | 35.94166 | -115.99812 | 21096 ft | 408 kts | 309° |
| 2026-05-05 01:06 | 35.96209 | -116.02277 | 21722 ft | 412 kts | 309° |
| 2026-05-05 01:06 | 35.98280 | -116.04756 | 22295 ft | 417 kts | 309° |
| 2026-05-05 01:07 | 36.00364 | -116.07268 | 22777 ft | 422 kts | 309° |
| 2026-05-05 01:07 | 36.02456 | -116.09808 | 23539 ft | 420 kts | 308° |
| 2026-05-05 01:07 | 36.04538 | -116.12359 | 24081 ft | 423 kts | 308° |
| 2026-05-05 01:07 | 36.06629 | -116.14940 | 24568 ft | 426 kts | 307° |
| 2026-05-05 01:08 | 36.08734 | -116.17549 | 25041 ft | 430 kts | 307° |
| 2026-05-05 01:08 | 36.10850 | -116.20176 | 25524 ft | 432 kts | 307° |
| 2026-05-05 01:08 | 36.12980 | -116.22820 | 26002 ft | 435 kts | 306° |
| 2026-05-05 01:08 | 36.15124 | -116.25484 | 26457 ft | 438 kts | 306° |
| 2026-05-05 01:09 | 36.17277 | -116.28161 | 26923 ft | 440 kts | 306° |
| 2026-05-05 01:09 | 36.19417 | -116.30822 | 27353 ft | 442 kts | 306° |
| 2026-05-05 01:09 | 36.21594 | -116.33531 | 27780 ft | 445 kts | 306° |
| 2026-05-05 01:09 | 36.23785 | -116.36261 | 28186 ft | 447 kts | 306° |
| 2026-05-05 01:10 | 36.25989 | -116.39008 | 28577 ft | 449 kts | 306° |
| 2026-05-05 01:10 | 36.28199 | -116.41766 | 28958 ft | 452 kts | 306° |
| 2026-05-05 01:10 | 36.30448 | -116.44506 | 29325 ft | 455 kts | 307° |
| 2026-05-05 01:10 | 36.32744 | -116.47229 | 29723 ft | 457 kts | 307° |
| 2026-05-05 01:11 | 36.35046 | -116.49935 | 30192 ft | 455 kts | 307° |
| 2026-05-05 01:11 | 36.37339 | -116.52638 | 30626 ft | 454 kts | 307° |
| 2026-05-05 01:11 | 36.39594 | -116.55314 | 31030 ft | 455 kts | 307° |
| 2026-05-05 01:11 | 36.41876 | -116.58036 | 31443 ft | 455 kts | 307° |
| 2026-05-05 01:12 | 36.44147 | -116.60744 | 32074 ft | 451 kts | 307° |
| 2026-05-05 01:12 | 36.46437 | -116.63439 | 32406 ft | 454 kts | 308° |
| 2026-05-05 01:12 | 36.48786 | -116.66104 | 32603 ft | 459 kts | 309° |
| 2026-05-05 01:12 | 36.51160 | -116.68761 | 32942 ft | 460 kts | 309° |
| 2026-05-05 01:13 | 36.53529 | -116.71426 | 33388 ft | 458 kts | 309° |
| 2026-05-05 01:13 | 36.55890 | -116.74102 | 33809 ft | 457 kts | 309° |
| 2026-05-05 01:13 | 36.58231 | -116.76772 | 34113 ft | 457 kts | 309° |
| 2026-05-05 01:13 | 36.60579 | -116.79454 | 34369 ft | 458 kts | 309° |
| 2026-05-05 01:14 | 36.62927 | -116.82137 | 34688 ft | 458 kts | 309° |
| 2026-05-05 01:14 | 36.65271 | -116.84815 | 35009 ft | 458 kts | 309° |
| 2026-05-05 01:14 | 36.67592 | -116.87470 | 35305 ft | 458 kts | 309° |
| 2026-05-05 01:14 | 36.69943 | -116.90159 | 35603 ft | 458 kts | 309° |
| 2026-05-05 01:15 | 36.72291 | -116.92849 | 35903 ft | 458 kts | 309° |
| 2026-05-05 01:15 | 36.74806 | -116.95362 | 36171 ft | 471 kts | 321° |
| 2026-05-05 01:15 | 36.77686 | -116.97364 | 36448 ft | 476 kts | 325° |
| 2026-05-05 01:15 | 36.80646 | -116.99229 | 36754 ft | 477 kts | 326° |
| 2026-05-05 01:16 | 36.83623 | -117.01052 | 37091 ft | 475 kts | 326° |
| 2026-05-05 01:16 | 36.86584 | -117.02878 | 37338 ft | 475 kts | 326° |
| 2026-05-05 01:16 | 36.89542 | -117.04738 | 37510 ft | 476 kts | 326° |
| 2026-05-05 01:16 | 36.92446 | -117.06594 | 37702 ft | 473 kts | 325° |
| 2026-05-05 01:17 | 36.98311 | -117.10402 | 37748 ft | 477 kts | 325° |
| 2026-05-05 01:17 | 37.04224 | -117.14266 | 37752 ft | 479 kts | 326° |
| 2026-05-05 01:18 | 37.10146 | -117.18133 | 37754 ft | 480 kts | 325° |
| 2026-05-05 01:18 | 37.16085 | -117.22016 | 37758 ft | 480 kts | 325° |
| 2026-05-05 01:19 | 37.21977 | -117.25874 | 37766 ft | 480 kts | 325° |
| 2026-05-05 01:19 | 37.27904 | -117.29764 | 37758 ft | 479 kts | 325° |
| 2026-05-05 01:20 | 37.33827 | -117.33632 | 37766 ft | 480 kts | 326° |
| 2026-05-05 01:20 | 37.39763 | -117.37464 | 37758 ft | 479 kts | 326° |
| 2026-05-05 01:21 | 37.45692 | -117.41296 | 37758 ft | 478 kts | 326° |
| 2026-05-05 01:21 | 37.51582 | -117.45117 | 37752 ft | 478 kts | 326° |
| 2026-05-05 01:22 | 37.57505 | -117.48971 | 37769 ft | 478 kts | 326° |
| 2026-05-05 01:22 | 37.63414 | -117.52824 | 37752 ft | 478 kts | 326° |
| 2026-05-05 01:23 | 37.69318 | -117.56679 | 37748 ft | 478 kts | 326° |
| 2026-05-05 01:23 | 37.75226 | -117.60544 | 37745 ft | 478 kts | 326° |
| 2026-05-05 01:24 | 37.81089 | -117.64386 | 37747 ft | 477 kts | 326° |
| 2026-05-05 01:24 | 37.86984 | -117.68256 | 37760 ft | 477 kts | 326° |
| 2026-05-05 01:25 | 37.92873 | -117.72131 | 37770 ft | 476 kts | 326° |
| 2026-05-05 01:25 | 37.98752 | -117.76010 | 37779 ft | 476 kts | 325° |
| 2026-05-05 01:26 | 38.04030 | -117.80773 | 37800 ft | 464 kts | 313° |
| 2026-05-05 01:26 | 38.08920 | -117.86129 | 37801 ft | 464 kts | 313° |
| 2026-05-05 01:27 | 38.13804 | -117.91503 | 37806 ft | 465 kts | 313° |
| 2026-05-05 01:27 | 38.18721 | -117.96850 | 37813 ft | 466 kts | 314° |
| 2026-05-05 01:28 | 38.23661 | -118.02195 | 37825 ft | 466 kts | 314° |
| 2026-05-05 01:28 | 38.28594 | -118.07533 | 37823 ft | 465 kts | 314° |
| 2026-05-05 01:29 | 38.33532 | -118.12890 | 37833 ft | 465 kts | 314° |
| 2026-05-05 01:29 | 38.38451 | -118.18240 | 37849 ft | 465 kts | 315° |
| 2026-05-05 01:30 | 38.43337 | -118.23563 | 37843 ft | 465 kts | 315° |
| 2026-05-05 01:30 | 38.48248 | -118.28923 | 37866 ft | 464 kts | 315° |
| 2026-05-05 01:31 | 38.53146 | -118.34279 | 37881 ft | 463 kts | 315° |
| 2026-05-05 01:31 | 38.58037 | -118.39638 | 37891 ft | 463 kts | 316° |
| 2026-05-05 01:32 | 38.62932 | -118.45010 | 37894 ft | 464 kts | 316° |
| 2026-05-05 01:32 | 38.67789 | -118.50351 | 37888 ft | 463 kts | 316° |
| 2026-05-05 01:33 | 38.72676 | -118.55734 | 37885 ft | 463 kts | 316° |
| 2026-05-05 01:33 | 38.77554 | -118.61119 | 37880 ft | 462 kts | 316° |
| 2026-05-05 01:34 | 38.82430 | -118.66510 | 37871 ft | 462 kts | 316° |
| 2026-05-05 01:34 | 38.87310 | -118.71916 | 37845 ft | 463 kts | 317° |
| 2026-05-05 01:35 | 38.92174 | -118.77317 | 37836 ft | 462 kts | 317° |
| 2026-05-05 01:35 | 38.97024 | -118.82710 | 37842 ft | 462 kts | 317° |
| 2026-05-05 01:36 | 39.01881 | -118.88122 | 37828 ft | 462 kts | 317° |
| 2026-05-05 01:36 | 39.06737 | -118.93542 | 37825 ft | 462 kts | 318° |
| 2026-05-05 01:37 | 39.11557 | -118.98935 | 37828 ft | 462 kts | 318° |
| 2026-05-05 01:37 | 39.16408 | -119.04370 | 37822 ft | 462 kts | 319° |
| 2026-05-05 01:38 | 39.21419 | -119.09585 | 37818 ft | 462 kts | 328° |
| 2026-05-05 01:38 | 39.26148 | -119.12514 | 37808 ft | 462 kts | 342° |
| 2026-05-05 01:39 | 39.32296 | -119.14999 | 37817 ft | 462 kts | 344° |
| 2026-05-05 01:39 | 39.38446 | -119.17403 | 37815 ft | 462 kts | 344° |
| 2026-05-05 01:40 | 39.44582 | -119.19859 | 37817 ft | 462 kts | 343° |
| 2026-05-05 01:40 | 39.50684 | -119.22348 | 37812 ft | 461 kts | 343° |
| 2026-05-05 01:41 | 39.56811 | -119.24865 | 37822 ft | 460 kts | 344° |
| 2026-05-05 01:41 | 39.62874 | -119.27362 | 37820 ft | 459 kts | 344° |
| 2026-05-05 01:42 | 39.68969 | -119.29873 | 37828 ft | 458 kts | 344° |
| 2026-05-05 01:42 | 39.75031 | -119.32375 | 37820 ft | 456 kts | 344° |
| 2026-05-05 01:43 | 39.81062 | -119.34868 | 37826 ft | 454 kts | 344° |
| 2026-05-05 01:43 | 39.87040 | -119.37343 | 37822 ft | 452 kts | 344° |
| 2026-05-05 01:44 | 39.93027 | -119.39829 | 37819 ft | 451 kts | 344° |
| 2026-05-05 01:44 | 39.99015 | -119.42318 | 37826 ft | 450 kts | 344° |
| 2026-05-05 01:45 | 40.04983 | -119.44803 | 37814 ft | 450 kts | 344° |
| 2026-05-05 01:45 | 40.10945 | -119.47291 | 37808 ft | 449 kts | 344° |
| 2026-05-05 01:46 | 40.16900 | -119.49780 | 37815 ft | 450 kts | 344° |
| 2026-05-05 01:46 | 40.22864 | -119.52277 | 37801 ft | 450 kts | 344° |
| 2026-05-05 01:47 | 40.28835 | -119.54783 | 37816 ft | 451 kts | 345° |
| 2026-05-05 01:47 | 40.34780 | -119.57282 | 37810 ft | 452 kts | 345° |
| 2026-05-05 01:48 | 40.40786 | -119.59811 | 37819 ft | 453 kts | 345° |
| 2026-05-05 01:48 | 40.46798 | -119.62347 | 37804 ft | 454 kts | 345° |
| 2026-05-05 01:49 | 40.52816 | -119.64891 | 37804 ft | 454 kts | 345° |
| 2026-05-05 01:49 | 40.58794 | -119.67423 | 37801 ft | 454 kts | 345° |
| 2026-05-05 01:50 | 40.64811 | -119.69977 | 37798 ft | 453 kts | 345° |
| 2026-05-05 01:50 | 40.70808 | -119.72527 | 37791 ft | 452 kts | 345° |
| 2026-05-05 01:51 | 40.76763 | -119.75064 | 37786 ft | 452 kts | 345° |
| 2026-05-05 01:51 | 40.82735 | -119.77612 | 37782 ft | 451 kts | 346° |
| 2026-05-05 01:52 | 40.88706 | -119.80165 | 37773 ft | 450 kts | 346° |
| 2026-05-05 01:52 | 40.94669 | -119.82720 | 37766 ft | 449 kts | 346° |
| 2026-05-05 01:53 | 41.00574 | -119.85254 | 37754 ft | 448 kts | 346° |
| 2026-05-05 01:53 | 41.06506 | -119.87805 | 37754 ft | 447 kts | 346° |
| 2026-05-05 01:54 | 41.12412 | -119.90350 | 37749 ft | 446 kts | 346° |
| 2026-05-05 01:54 | 41.18318 | -119.92898 | 37755 ft | 445 kts | 347° |
| 2026-05-05 01:55 | 41.24164 | -119.95427 | 37748 ft | 444 kts | 347° |
| 2026-05-05 01:55 | 41.30016 | -119.97963 | 37767 ft | 442 kts | 347° |
| 2026-05-05 01:56 | 41.35883 | -120.00508 | 37756 ft | 442 kts | 347° |
| 2026-05-05 01:56 | 41.41731 | -120.03051 | 37758 ft | 442 kts | 347° |
| 2026-05-05 01:57 | 41.47574 | -120.05597 | 37761 ft | 441 kts | 347° |
| 2026-05-05 01:57 | 41.53405 | -120.08143 | 37767 ft | 440 kts | 347° |
| 2026-05-05 01:58 | 41.59192 | -120.10674 | 37774 ft | 439 kts | 347° |
| 2026-05-05 01:58 | 41.64996 | -120.13218 | 37775 ft | 438 kts | 347° |
| 2026-05-05 01:59 | 41.70766 | -120.15926 | 37766 ft | 440 kts | 344° |
| 2026-05-05 01:59 | 41.76422 | -120.19117 | 37774 ft | 441 kts | 343° |
| 2026-05-05 02:00 | 41.82046 | -120.22375 | 37776 ft | 440 kts | 343° |
| 2026-05-05 02:00 | 41.87681 | -120.25593 | 37854 ft | 442 kts | 343° |
| 2026-05-05 02:01 | 41.93332 | -120.28785 | 37815 ft | 442 kts | 343° |
| 2026-05-05 02:01 | 41.98996 | -120.31982 | 37835 ft | 441 kts | 344° |
| 2026-05-05 02:02 | 42.04646 | -120.35174 | 37853 ft | 440 kts | 344° |
| 2026-05-05 02:02 | 42.10293 | -120.38371 | 37865 ft | 439 kts | 344° |
| 2026-05-05 02:03 | 42.15923 | -120.41564 | 37868 ft | 439 kts | 344° |
| 2026-05-05 02:03 | 42.21531 | -120.44752 | 37875 ft | 439 kts | 344° |
| 2026-05-05 02:04 | 42.27180 | -120.47969 | 37856 ft | 440 kts | 344° |
| 2026-05-05 02:04 | 42.32828 | -120.51191 | 37848 ft | 441 kts | 344° |
| 2026-05-05 02:05 | 42.38478 | -120.54424 | 37833 ft | 440 kts | 344° |
| 2026-05-05 02:05 | 42.44122 | -120.57658 | 37811 ft | 441 kts | 344° |
| 2026-05-05 02:06 | 42.49776 | -120.60902 | 37805 ft | 441 kts | 344° |
| 2026-05-05 02:06 | 42.55399 | -120.64137 | 37809 ft | 441 kts | 344° |
| 2026-05-05 02:07 | 42.61055 | -120.67397 | 37816 ft | 441 kts | 344° |
| 2026-05-05 02:07 | 42.66713 | -120.70664 | 37813 ft | 441 kts | 344° |
| 2026-05-05 02:08 | 42.72360 | -120.73932 | 37815 ft | 441 kts | 344° |
| 2026-05-05 02:08 | 42.78007 | -120.77207 | 37806 ft | 440 kts | 344° |
| 2026-05-05 02:09 | 42.83598 | -120.80455 | 37818 ft | 439 kts | 344° |
| 2026-05-05 02:09 | 42.89212 | -120.83723 | 37827 ft | 439 kts | 344° |
| 2026-05-05 02:10 | 42.94828 | -120.86999 | 37810 ft | 438 kts | 344° |
| 2026-05-05 02:10 | 43.00427 | -120.90271 | 37815 ft | 436 kts | 344° |
| 2026-05-05 02:11 | 43.05957 | -120.93509 | 37807 ft | 435 kts | 344° |
| 2026-05-05 02:11 | 43.11512 | -120.96769 | 37824 ft | 433 kts | 344° |
| 2026-05-05 02:12 | 43.19816 | -121.01652 | 37825 ft | 432 kts | 344° |
| 2026-05-05 02:13 | 43.25333 | -121.04905 | 37824 ft | 431 kts | 344° |
| 2026-05-05 02:13 | 43.30834 | -121.08155 | 37822 ft | 430 kts | 344° |
| 2026-05-05 02:14 | 43.36326 | -121.11405 | 37833 ft | 430 kts | 344° |
| 2026-05-05 02:14 | 43.41814 | -121.14660 | 37830 ft | 429 kts | 344° |
| 2026-05-05 02:15 | 43.47293 | -121.17916 | 37836 ft | 429 kts | 344° |
| 2026-05-05 02:15 | 43.52735 | -121.21157 | 37842 ft | 428 kts | 344° |
| 2026-05-05 02:16 | 43.58208 | -121.24423 | 37841 ft | 428 kts | 344° |
| 2026-05-05 02:16 | 43.63671 | -121.27689 | 37849 ft | 427 kts | 344° |
| 2026-05-05 02:17 | 43.69125 | -121.30956 | 37851 ft | 427 kts | 343° |
| 2026-05-05 02:17 | 43.74590 | -121.34236 | 37850 ft | 427 kts | 343° |
| 2026-05-05 02:18 | 43.80004 | -121.37492 | 37861 ft | 426 kts | 343° |
| 2026-05-05 02:18 | 43.85446 | -121.40772 | 37867 ft | 426 kts | 343° |
| 2026-05-05 02:19 | 43.90872 | -121.44048 | 37874 ft | 425 kts | 343° |
| 2026-05-05 02:19 | 43.96299 | -121.47331 | 37874 ft | 425 kts | 343° |
| 2026-05-05 02:20 | 44.01725 | -121.50620 | 37883 ft | 425 kts | 343° |
| 2026-05-05 02:20 | 44.07153 | -121.53919 | 37874 ft | 424 kts | 343° |
| 2026-05-05 02:21 | 44.12531 | -121.57193 | 37894 ft | 424 kts | 343° |
| 2026-05-05 02:21 | 44.17944 | -121.60492 | 37886 ft | 424 kts | 343° |
| 2026-05-05 02:22 | 44.23346 | -121.63794 | 37901 ft | 424 kts | 343° |
| 2026-05-05 02:22 | 44.28747 | -121.67101 | 37904 ft | 423 kts | 343° |
| 2026-05-05 02:23 | 44.34145 | -121.70414 | 37909 ft | 423 kts | 343° |
| 2026-05-05 02:23 | 44.39501 | -121.73707 | 37910 ft | 422 kts | 343° |
| 2026-05-05 02:24 | 44.44880 | -121.77020 | 37911 ft | 422 kts | 343° |
| 2026-05-05 02:24 | 44.50254 | -121.80338 | 37921 ft | 422 kts | 343° |
| 2026-05-05 02:25 | 44.55620 | -121.83658 | 37934 ft | 420 kts | 343° |
| 2026-05-05 02:25 | 44.60975 | -121.86977 | 37926 ft | 421 kts | 343° |
| 2026-05-05 02:26 | 44.65419 | -121.89735 | 37929 ft | 420 kts | 342° |
| 2026-05-05 02:26 | 44.71631 | -121.93600 | 37937 ft | 420 kts | 342° |
| 2026-05-05 02:27 | 44.76124 | -121.96401 | 37942 ft | 421 kts | 342° |
| 2026-05-05 02:27 | 44.81444 | -121.99724 | 37932 ft | 420 kts | 342° |
| 2026-05-05 02:28 | 44.86785 | -122.03068 | 37938 ft | 420 kts | 342° |
| 2026-05-05 02:28 | 44.92130 | -122.06420 | 37956 ft | 421 kts | 342° |
| 2026-05-05 02:29 | 44.97484 | -122.09785 | 37941 ft | 421 kts | 342° |
| 2026-05-05 02:29 | 45.02832 | -122.13153 | 37949 ft | 420 kts | 342° |
| 2026-05-05 02:30 | 45.08175 | -122.16526 | 37940 ft | 420 kts | 342° |
| 2026-05-05 02:30 | 45.13514 | -122.19901 | 37946 ft | 419 kts | 342° |
| 2026-05-05 02:31 | 45.18807 | -122.23255 | 37940 ft | 419 kts | 342° |
| 2026-05-05 02:31 | 45.24132 | -122.26636 | 37932 ft | 419 kts | 342° |
| 2026-05-05 02:32 | 45.29448 | -122.30019 | 37912 ft | 419 kts | 342° |
| 2026-05-05 02:32 | 45.34766 | -122.33410 | 37915 ft | 418 kts | 342° |
| 2026-05-05 02:33 | 45.40074 | -122.36801 | 37898 ft | 417 kts | 342° |
| 2026-05-05 02:33 | 45.45339 | -122.40172 | 37900 ft | 417 kts | 342° |
| 2026-05-05 02:34 | 45.50630 | -122.43566 | 37894 ft | 417 kts | 342° |
| 2026-05-05 02:34 | 45.55921 | -122.46968 | 37898 ft | 416 kts | 341° |
| 2026-05-05 02:35 | 45.61201 | -122.50370 | 37894 ft | 416 kts | 341° |
| 2026-05-05 02:35 | 45.66474 | -122.53774 | 37900 ft | 416 kts | 341° |
| 2026-05-05 02:36 | 45.71746 | -122.57184 | 37915 ft | 415 kts | 341° |
| 2026-05-05 02:36 | 45.77132 | -122.59882 | 37934 ft | 405 kts | 355° |
| 2026-05-05 02:37 | 45.82670 | -122.61164 | 37908 ft | 406 kts | 355° |
| 2026-05-05 02:37 | 45.88247 | -122.62488 | 37909 ft | 406 kts | 354° |
| 2026-05-05 02:38 | 45.93831 | -122.63861 | 37913 ft | 407 kts | 354° |
| 2026-05-05 02:38 | 45.99426 | -122.65252 | 37937 ft | 408 kts | 354° |
| 2026-05-05 02:39 | 46.05030 | -122.66648 | 37942 ft | 408 kts | 354° |
| 2026-05-05 02:39 | 46.10637 | -122.68035 | 37773 ft | 411 kts | 355° |
| 2026-05-05 02:39 | 46.13452 | -122.68623 | 37118 ft | 413 kts | 356° |
| 2026-05-05 02:40 | 46.16292 | -122.69161 | 36415 ft | 411 kts | 356° |
| 2026-05-05 02:40 | 46.19128 | -122.69691 | 35637 ft | 411 kts | 356° |
| 2026-05-05 02:40 | 46.21977 | -122.70233 | 34788 ft | 413 kts | 355° |
| 2026-05-05 02:40 | 46.24835 | -122.70790 | 33912 ft | 416 kts | 355° |
| 2026-05-05 02:41 | 46.27722 | -122.71361 | 32868 ft | 420 kts | 355° |
| 2026-05-05 02:41 | 46.30626 | -122.71939 | 31874 ft | 422 kts | 355° |
| 2026-05-05 02:41 | 46.33550 | -122.72418 | 30799 ft | 425 kts | 358° |
| 2026-05-05 02:41 | 46.36522 | -122.72612 | 29669 ft | 428 kts | 0° |
| 2026-05-05 02:42 | 46.39480 | -122.72676 | 28440 ft | 431 kts | 1° |
| 2026-05-05 02:42 | 46.42487 | -122.72710 | 27359 ft | 430 kts | 1° |
| 2026-05-05 02:42 | 46.45464 | -122.72758 | 26487 ft | 424 kts | 1° |
| 2026-05-05 02:42 | 46.48405 | -122.72828 | 25643 ft | 419 kts | 0° |
| 2026-05-05 02:43 | 46.51302 | -122.72915 | 24826 ft | 414 kts | 0° |
| 2026-05-05 02:43 | 46.54159 | -122.73013 | 24027 ft | 409 kts | 0° |
| 2026-05-05 02:43 | 46.56962 | -122.73114 | 23159 ft | 406 kts | 0° |
| 2026-05-05 02:43 | 46.59774 | -122.73217 | 22257 ft | 401 kts | 360° |
| 2026-05-05 02:44 | 46.62553 | -122.73319 | 21405 ft | 396 kts | 360° |
| 2026-05-05 02:44 | 46.65289 | -122.73418 | 20610 ft | 391 kts | 359° |
| 2026-05-05 02:44 | 46.67996 | -122.73517 | 19817 ft | 386 kts | 359° |
| 2026-05-05 02:44 | 46.70667 | -122.73613 | 19228 ft | 379 kts | 359° |
| 2026-05-05 02:45 | 46.73178 | -122.73705 | 19066 ft | 351 kts | 359° |
| 2026-05-05 02:45 | 46.75571 | -122.73793 | 18918 ft | 332 kts | 359° |
| 2026-05-05 02:45 | 46.77796 | -122.73474 | 18768 ft | 323 kts | 14° |
| 2026-05-05 02:45 | 46.79884 | -122.72216 | 18249 ft | 331 kts | 31° |
| 2026-05-05 02:46 | 46.81753 | -122.70207 | 17727 ft | 335 kts | 37° |
| 2026-05-05 02:46 | 46.83536 | -122.68045 | 17251 ft | 331 kts | 37° |
| 2026-05-05 02:46 | 46.85293 | -122.65896 | 16712 ft | 328 kts | 37° |
| 2026-05-05 02:46 | 46.87074 | -122.63823 | 16192 ft | 326 kts | 36° |
| 2026-05-05 02:47 | 46.88856 | -122.61797 | 15656 ft | 323 kts | 36° |
| 2026-05-05 02:47 | 46.90625 | -122.59790 | 15244 ft | 319 kts | 36° |
| 2026-05-05 02:47 | 46.92311 | -122.57870 | 15110 ft | 299 kts | 36° |
| 2026-05-05 02:47 | 46.93981 | -122.56159 | 14909 ft | 287 kts | 24° |
| 2026-05-05 02:48 | 46.95860 | -122.55196 | 14642 ft | 287 kts | 15° |
| 2026-05-05 02:48 | 46.97792 | -122.54386 | 14344 ft | 292 kts | 15° |
| 2026-05-05 02:48 | 46.99758 | -122.53565 | 14044 ft | 296 kts | 15° |
| 2026-05-05 02:48 | 47.01746 | -122.52719 | 13721 ft | 298 kts | 15° |
| 2026-05-05 02:49 | 47.03726 | -122.51862 | 13361 ft | 294 kts | 15° |
| 2026-05-05 02:49 | 47.05658 | -122.51019 | 13035 ft | 290 kts | 15° |
| 2026-05-05 02:49 | 47.07586 | -122.50179 | 12720 ft | 287 kts | 15° |
| 2026-05-05 02:49 | 47.09538 | -122.49607 | 12426 ft | 286 kts | 7° |
| 2026-05-05 02:50 | 47.11516 | -122.49283 | 12122 ft | 286 kts | 6° |
| 2026-05-05 02:50 | 47.13493 | -122.48976 | 11820 ft | 285 kts | 6° |
| 2026-05-05 02:50 | 47.15459 | -122.48645 | 11518 ft | 285 kts | 6° |
| 2026-05-05 02:50 | 47.17428 | -122.48295 | 11222 ft | 284 kts | 7° |
| 2026-05-05 02:51 | 47.19391 | -122.47944 | 10925 ft | 284 kts | 6° |
| 2026-05-05 02:51 | 47.21352 | -122.47634 | 10619 ft | 284 kts | 6° |
| 2026-05-05 02:51 | 47.23315 | -122.47340 | 10336 ft | 283 kts | 5° |
| 2026-05-05 02:51 | 47.25244 | -122.47052 | 10016 ft | 272 kts | 5° |
| 2026-05-05 02:52 | 47.27102 | -122.46772 | 9739 ft | 266 kts | 6° |
| 2026-05-05 02:52 | 47.28932 | -122.46494 | 9426 ft | 264 kts | 6° |
| 2026-05-05 02:52 | 47.30758 | -122.46216 | 9143 ft | 264 kts | 6° |
| 2026-05-05 02:52 | 47.32564 | -122.45940 | 8868 ft | 264 kts | 6° |
| 2026-05-05 02:53 | 47.34386 | -122.45661 | 8571 ft | 261 kts | 6° |
| 2026-05-05 02:53 | 47.36169 | -122.45468 | 8281 ft | 252 kts | 1° |
| 2026-05-05 02:53 | 47.37909 | -122.45466 | 8028 ft | 249 kts | 359° |
| 2026-05-05 02:53 | 47.39632 | -122.45489 | 7765 ft | 247 kts | 359° |
| 2026-05-05 02:54 | 47.41355 | -122.45510 | 7513 ft | 248 kts | 359° |
| 2026-05-05 02:54 | 47.43088 | -122.45524 | 7248 ft | 248 kts | 360° |
| 2026-05-05 02:54 | 47.44819 | -122.45530 | 6986 ft | 249 kts | 360° |
| 2026-05-05 02:54 | 47.46546 | -122.45533 | 6704 ft | 245 kts | 360° |
| 2026-05-05 02:55 | 47.48216 | -122.45535 | 6424 ft | 235 kts | 0° |
| 2026-05-05 02:55 | 47.49843 | -122.45536 | 6166 ft | 231 kts | 0° |
| 2026-05-05 02:55 | 47.51413 | -122.45539 | 5942 ft | 223 kts | 359° |
| 2026-05-05 02:55 | 47.52948 | -122.45559 | 5681 ft | 220 kts | 359° |
| 2026-05-05 02:56 | 47.54473 | -122.45586 | 5435 ft | 218 kts | 359° |
| 2026-05-05 02:56 | 47.55962 | -122.45613 | 5216 ft | 215 kts | 359° |
| 2026-05-05 02:56 | 47.57450 | -122.45635 | 4974 ft | 213 kts | 359° |
| 2026-05-05 02:56 | 47.58934 | -122.45648 | 4745 ft | 214 kts | 359° |
| 2026-05-05 02:57 | 47.60436 | -122.45643 | 4495 ft | 216 kts | 0° |
| 2026-05-05 02:57 | 47.61947 | -122.45631 | 4246 ft | 218 kts | 0° |
| 2026-05-05 02:57 | 47.63462 | -122.45618 | 4050 ft | 216 kts | 0° |
| 2026-05-05 02:57 | 47.64954 | -122.45604 | 3995 ft | 213 kts | 0° |
| 2026-05-05 02:58 | 47.66377 | -122.45172 | 3903 ft | 210 kts | 28° |
| 2026-05-05 02:58 | 47.67385 | -122.43642 | 3700 ft | 210 kts | 63° |
| 2026-05-05 02:58 | 47.67691 | -122.41563 | 3532 ft | 204 kts | 83° |
| 2026-05-05 02:58 | 47.67798 | -122.39484 | 3385 ft | 200 kts | 85° |
| 2026-05-05 02:59 | 47.67899 | -122.37440 | 3260 ft | 202 kts | 85° |
| 2026-05-05 02:59 | 47.67797 | -122.35370 | 3185 ft | 203 kts | 111° |
| 2026-05-05 02:59 | 47.66938 | -122.33775 | 3198 ft | 201 kts | 142° |
| 2026-05-05 02:59 | 47.65793 | -122.32555 | 3192 ft | 203 kts | 146° |
| 2026-05-05 03:00 | 47.64464 | -122.31910 | 3190 ft | 202 kts | 175° |
| 2026-05-05 03:00 | 47.63057 | -122.31733 | 3188 ft | 203 kts | 176° |
| 2026-05-05 03:00 | 47.61687 | -122.31663 | 3167 ft | 191 kts | 179° |
| 2026-05-05 03:00 | 47.60392 | -122.31662 | 3080 ft | 181 kts | 180° |
| 2026-05-05 03:01 | 47.59183 | -122.31673 | 2881 ft | 167 kts | 180° |
| 2026-05-05 03:01 | 47.58079 | -122.31683 | 2711 ft | 152 kts | 180° |
| 2026-05-05 03:01 | 47.57050 | -122.31693 | 2493 ft | 141 kts | 180° |
| 2026-05-05 03:01 | 47.56096 | -122.31701 | 2307 ft | 134 kts | 180° |
| 2026-05-05 03:02 | 47.55169 | -122.31708 | 2143 ft | 134 kts | 180° |
| 2026-05-05 03:02 | 47.54235 | -122.31717 | 1970 ft | 133 kts | 181° |
| 2026-05-05 03:02 | 47.53312 | -122.31725 | 1792 ft | 132 kts | 182° |
| 2026-05-05 03:02 | 47.52396 | -122.31732 | 1607 ft | 131 kts | 182° |
| 2026-05-05 03:03 | 47.51486 | -122.31740 | 1446 ft | 131 kts | 182° |
| 2026-05-05 03:03 | 47.50579 | -122.31749 | 1287 ft | 129 kts | 182° |
| 2026-05-05 03:03 | 47.49688 | -122.31756 | 1099 ft | 129 kts | 181° |
| 2026-05-05 03:03 | 47.48803 | -122.31764 | 939 ft | 125 kts | 183° |
| 2026-05-05 03:04 | 47.47908 | -122.31764 | 787 ft | 131 kts | 181° |
| 2026-05-05 03:04 | 47.47003 | -122.31759 | 590 ft | 130 kts | 186° |
| 2026-05-05 03:04 | 47.46131 | -122.31777 | 389 ft | 119 kts | 184° |
| 2026-05-05 03:04 | 47.45417 | -122.31794 | 383 ft | 82 kts | 180° |
| 2026-05-05 03:05 | 47.44993 | -122.31801 | 383 ft | 40 kts | 181° |
| 2026-05-05 03:05 | 47.44765 | -122.31798 | 383 ft | 32 kts | 174° |
| 2026-05-05 03:05 | 47.44574 | -122.31726 | 383 ft | 24 kts | 152° |
| 2026-05-05 03:05 | 47.44433 | -122.31609 | 383 ft | 23 kts | 159° |
| 2026-05-05 03:06 | 47.44353 | -122.31549 | 383 ft | 6 kts | 148° |
| 2026-05-05 03:06 | 47.44338 | -122.31535 | 383 ft | 0 kts | 149° |
| 2026-05-05 03:08 | 47.44318 | -122.31515 | 383 ft | 7 kts | 145° |
| 2026-05-05 03:08 | 47.44267 | -122.31439 | 383 ft | 13 kts | 126° |
| 2026-05-05 03:08 | 47.44191 | -122.31361 | 383 ft | 14 kts | 170° |
| 2026-05-05 03:08 | 47.44099 | -122.31362 | 383 ft | 13 kts | 182° |
| 2026-05-05 03:09 | 47.43999 | -122.31364 | 383 ft | 17 kts | 180° |
| 2026-05-05 03:09 | 47.43882 | -122.31365 | 383 ft | 15 kts | 179° |
| 2026-05-05 03:09 | 47.43818 | -122.31294 | 383 ft | 12 kts | 115° |
| 2026-05-05 03:09 | 47.43811 | -122.31175 | 383 ft | 12 kts | 91° |
| 2026-05-05 03:10 | 47.43808 | -122.31055 | 383 ft | 12 kts | 92° |
| 2026-05-05 03:10 | 47.43805 | -122.30947 | 383 ft | 5 kts | 88° |
| 2026-05-05 03:10 | 47.43805 | -122.30943 | 383 ft | 0 kts | 89° |
| 2026-05-05 03:10 | 47.43806 | -122.30896 | 383 ft | 9 kts | 89° |
| 2026-05-05 03:11 | 47.43806 | -122.30784 | 383 ft | 13 kts | 90° |
| 2026-05-05 03:11 | 47.43806 | -122.30671 | 383 ft | 8 kts | 89° |
| 2026-05-05 03:11 | 47.43828 | -122.30637 | 383 ft | 2 kts | 26° |
| 2026-05-05 03:11 | 47.43847 | -122.30635 | 383 ft | 5 kts | 357° |
| 2026-05-05 03:12 | 47.43877 | -122.30637 | 383 ft | 8 kts | 357° |
| 2026-05-05 03:12 | 47.43970 | -122.30627 | 383 ft | 10 kts | 27° |
| 2026-05-05 03:12 | 47.43995 | -122.30541 | 383 ft | 9 kts | 88° |
| 2026-05-05 03:12 | 47.43994 | -122.30477 | 383 ft | 9 kts | 91° |
| 2026-05-05 03:13 | 47.43992 | -122.30390 | 383 ft | 7 kts | 92° |
| 2026-05-05 03:13 | 47.43997 | -122.30328 | 383 ft | 6 kts | 76° |
| 2026-05-05 03:13 | 47.44016 | -122.30274 | 383 ft | 6 kts | 57° |
| 2026-05-05 03:13 | 47.44058 | -122.30236 | 383 ft | 9 kts | 7° |
| 2026-05-05 03:14 | 47.44118 | -122.30243 | 383 ft | 7 kts | 356° |
| 2026-05-05 03:14 | 47.44156 | -122.30268 | 383 ft | 6 kts | 301° |
| 2026-05-05 03:14 | 47.44164 | -122.30293 | 383 ft | 1 kts | 300° |
| 2026-05-05 03:14 | 47.44167 | -122.30302 | 383 ft | 1 kts | 300° |
| 2026-05-05 03:15 | 47.44171 | -122.30310 | 383 ft | 0 kts | 300° |
| 2026-05-05 03:15 | 47.44171 | -122.30311 | 383 ft | 0 kts | 300° |